Time;durP1;ratioP1;P1;durP2;ratioP2;P2;SDS_P1;SDS_P2;PMS_P1;PMS_P2;Temp;Humidity;BMP_temperature;BMP_pressure;BME280_temperature;BME280_humidity;BME280_pressure;Samples;Min_cycle;Max_cycle;Signal;HPM_P1;HPM_P2
2023/09/20 00:00:51;;;;;;;4.10;1.70;;;;;;;;;;4993670;28;20078;-76
2023/09/20 00:03:17;;;;;;;1.95;1.40;;;;;;;;;;4994407;28;20029;-76
2023/09/20 00:05:45;;;;;;;3.70;1.20;;;;;;;;;;4975540;28;20022;-77
2023/09/20 00:08:10;;;;;;;4.93;1.50;;;;;;;;;;4976257;28;20053;-78
2023/09/20 00:10:37;;;;;;;3.87;1.20;;;;;;;;;;4993628;28;20084;-77
2023/09/20 00:13:02;;;;;;;4.47;1.38;;;;;;;;;;4994120;28;20268;-77
2023/09/20 00:15:30;;;;;;;3.28;1.30;;;;;;;;;;4993921;28;20037;-77
2023/09/20 00:17:55;;;;;;;4.60;1.50;;;;;;;;;;4994158;28;20026;-76
2023/09/20 00:20:20;;;;;;;4.07;1.23;;;;;;;;;;4993843;28;20053;-77
2023/09/20 00:22:45;;;;;;;3.30;1.40;;;;;;;;;;4993983;28;20276;-77
2023/09/20 00:25:13;;;;;;;3.28;1.10;;;;;;;;;;4976855;28;20026;-76
2023/09/20 00:27:39;;;;;;;5.20;1.10;;;;;;;;;;4976371;28;20053;-76
2023/09/20 00:30:14;;;;;;;6.28;1.25;;;;;;;;;;4994769;28;20106;-77
2023/09/20 00:32:40;;;;;;;3.70;1.25;;;;;;;;;;4995099;28;20026;-77
2023/09/20 00:35:08;;;;;;;4.72;1.30;;;;;;;;;;4994599;28;20032;-77
2023/09/20 00:37:33;;;;;;;3.17;1.25;;;;;;;;;;4977035;28;20039;-77
2023/09/20 00:39:59;;;;;;;1.65;1.10;;;;;;;;;;4976819;28;20023;-77
2023/09/20 00:42:27;;;;;;;2.40;1.10;;;;;;;;;;4976951;28;20045;-77
2023/09/20 00:44:53;;;;;;;1.75;1.15;;;;;;;;;;4998244;28;20058;-78
2023/09/20 00:47:20;;;;;;;3.28;1.30;;;;;;;;;;4997318;28;20038;-77
2023/09/20 00:49:46;;;;;;;3.97;1.40;;;;;;;;;;4994185;28;20489;-77
2023/09/20 00:52:13;;;;;;;2.97;1.30;;;;;;;;;;4993812;28;20113;-77
2023/09/20 00:54:39;;;;;;;2.78;1.10;;;;;;;;;;4994053;28;20030;-77
2023/09/20 00:57:07;;;;;;;2.30;1.30;;;;;;;;;;4999920;28;20033;-77
2023/09/20 00:59:33;;;;;;;4.55;1.40;;;;;;;;;;4995293;28;20030;-77
2023/09/20 01:02:00;;;;;;;3.53;1.30;;;;;;;;;;4994158;28;20037;-77
2023/09/20 01:04:27;;;;;;;3.45;1.42;;;;;;;;;;4994130;28;20030;-77
2023/09/20 01:06:53;;;;;;;1.67;1.15;;;;;;;;;;4995602;28;20018;-76
2023/09/20 01:09:18;;;;;;;3.10;1.20;;;;;;;;;;4977825;28;20026;-77
2023/09/20 01:11:45;;;;;;;4.18;1.30;;;;;;;;;;4979538;28;20027;-76
2023/09/20 01:14:11;;;;;;;3.53;1.27;;;;;;;;;;4997544;28;20050;-77
2023/09/20 01:16:37;;;;;;;2.40;1.13;;;;;;;;;;4999450;28;20018;-77
2023/09/20 01:19:04;;;;;;;3.00;1.25;;;;;;;;;;5007911;28;20027;-78
2023/09/20 01:21:30;;;;;;;3.53;1.45;;;;;;;;;;4981851;28;20022;-77
2023/09/20 01:23:56;;;;;;;1.73;1.02;;;;;;;;;;4997665;28;20122;-77
2023/09/20 01:26:22;;;;;;;3.25;1.20;;;;;;;;;;4979917;28;20465;-77
2023/09/20 01:28:47;;;;;;;3.20;1.48;;;;;;;;;;4996753;28;20033;-77
2023/09/20 01:31:13;;;;;;;1.63;1.10;;;;;;;;;;5000196;28;20034;-76
2023/09/20 01:33:38;;;;;;;6.18;1.25;;;;;;;;;;4997116;28;20092;-77
2023/09/20 01:36:04;;;;;;;1.87;1.20;;;;;;;;;;4998677;28;20120;-78
2023/09/20 01:38:29;;;;;;;3.28;1.50;;;;;;;;;;5003237;28;20267;-77
2023/09/20 01:40:56;;;;;;;2.17;1.23;;;;;;;;;;5001627;28;20026;-77
2023/09/20 01:43:24;;;;;;;2.53;1.17;;;;;;;;;;5001839;28;20026;-76
2023/09/20 01:45:50;;;;;;;1.98;1.30;;;;;;;;;;4996895;28;20026;-79
2023/09/20 01:48:15;;;;;;;2.38;1.20;;;;;;;;;;4999622;28;20435;-77
2023/09/20 01:50:44;;;;;;;1.90;1.33;;;;;;;;;;4999722;28;20441;-77
2023/09/20 01:53:11;;;;;;;4.75;1.40;;;;;;;;;;4979460;28;20033;-77
2023/09/20 01:55:37;;;;;;;1.48;1.10;;;;;;;;;;5000328;28;20343;-78
2023/09/20 01:58:06;;;;;;;1.52;1.10;;;;;;;;;;4980946;28;20065;-77
2023/09/20 02:00:36;;;;;;;2.55;1.15;;;;;;;;;;4998707;28;20073;-77
2023/09/20 02:03:16;;;;;;;5.70;1.17;;;;;;;;;;5005566;28;20057;-78
2023/09/20 02:05:44;;;;;;;6.78;1.40;;;;;;;;;;4988422;28;20057;-78
2023/09/20 02:08:09;;;;;;;3.08;1.20;;;;;;;;;;4983480;28;20113;-78
2023/09/20 02:10:39;;;;;;;3.15;1.05;;;;;;;;;;5000728;28;20069;-78
2023/09/20 02:13:04;;;;;;;2.25;1.10;;;;;;;;;;5007854;28;20030;-78
2023/09/20 02:15:31;;;;;;;3.15;1.10;;;;;;;;;;5000910;28;20385;-78
2023/09/20 02:17:57;;;;;;;3.42;1.30;;;;;;;;;;5001171;28;20105;-78
2023/09/20 02:20:24;;;;;;;2.33;1.10;;;;;;;;;;4981669;28;20058;-78
2023/09/20 02:22:51;;;;;;;2.28;1.30;;;;;;;;;;5003128;28;20030;-77
2023/09/20 02:25:24;;;;;;;6.82;1.23;;;;;;;;;;4997491;28;20026;-78
2023/09/20 02:27:58;;;;;;;3.58;1.30;;;;;;;;;;4997370;28;20030;-77
2023/09/20 02:30:28;;;;;;;;;;;;;;;;;;4997019;28;20026;-77
2023/09/20 02:32:57;;;;;;;5.18;1.20;;;;;;;;;;4996140;28;19917;-76
2023/09/20 02:35:24;;;;;;;4.03;1.20;;;;;;;;;;4996650;28;20088;-77
2023/09/20 02:37:50;;;;;;;1.65;1.10;;;;;;;;;;4996821;28;20381;-77
2023/09/20 02:40:19;;;;;;;3.72;1.17;;;;;;;;;;4979869;28;20053;-78
2023/09/20 02:42:46;;;;;;;4.60;1.20;;;;;;;;;;4997445;28;20026;-77
2023/09/20 02:45:13;;;;;;;3.65;1.20;;;;;;;;;;5005551;28;20022;-78
2023/09/20 02:47:43;;;;;;;2.15;1.20;;;;;;;;;;4981524;28;20034;-78
2023/09/20 02:50:16;;;;;;;3.45;1.08;;;;;;;;;;4996358;28;20106;-77
2023/09/20 02:52:43;;;;;;;3.72;1.35;;;;;;;;;;4997388;28;20023;-77
2023/09/20 02:55:08;;;;;;;3.17;1.10;;;;;;;;;;4998370;28;20061;-78
2023/09/20 02:57:37;;;;;;;4.97;1.15;;;;;;;;;;4998319;28;20037;-77
2023/09/20 03:00:15;;;;;;;1.65;1.08;;;;;;;;;;4997762;28;20088;-78
2023/09/20 03:02:45;;;;;;;2.00;1.08;;;;;;;;;;4997192;28;20385;-77
2023/09/20 03:05:16;;;;;;;1.83;1.10;;;;;;;;;;4996464;28;20482;-77
2023/09/20 03:07:45;;;;;;;1.98;1.08;;;;;;;;;;4996755;28;20026;-77
2023/09/20 03:10:12;;;;;;;1.83;1.08;;;;;;;;;;4997127;28;20022;-77
2023/09/20 03:12:44;;;;;;;1.48;1.08;;;;;;;;;;4995746;28;20050;-77
2023/09/20 03:15:11;;;;;;;3.03;1.20;;;;;;;;;;4996839;28;20026;-77
2023/09/20 03:17:42;;;;;;;3.58;1.10;;;;;;;;;;4997638;28;20018;-77
2023/09/20 03:20:10;;;;;;;2.67;1.00;;;;;;;;;;4996353;28;20148;-78
2023/09/20 03:22:37;;;;;;;3.53;1.10;;;;;;;;;;4995989;28;20030;-77
2023/09/20 03:25:09;;;;;;;5.40;1.30;;;;;;;;;;4977720;28;20402;-79
2023/09/20 03:27:35;;;;;;;3.42;1.10;;;;;;;;;;4996122;28;20034;-77
2023/09/20 03:30:03;;;;;;;1.75;0.90;;;;;;;;;;5002947;28;20084;-78
2023/09/20 03:32:28;;;;;;;3.10;1.33;;;;;;;;;;5003531;28;20032;-78
2023/09/20 03:34:56;;;;;;;4.28;1.20;;;;;;;;;;5006322;28;20058;-77
2023/09/20 03:37:21;;;;;;;3.55;1.40;;;;;;;;;;5000223;28;20094;-78
2023/09/20 03:39:48;;;;;;;2.38;1.48;;;;;;;;;;5002869;28;20065;-78
2023/09/20 03:42:13;;;;;;;1.90;1.30;;;;;;;;;;5002249;28;20037;-78
2023/09/20 03:44:39;;;;;;;1.52;1.13;;;;;;;;;;5003623;28;20022;-78
2023/09/20 03:47:05;;;;;;;2.92;1.15;;;;;;;;;;4983166;28;20481;-78
2023/09/20 03:49:30;;;;;;;1.38;1.00;;;;;;;;;;5000073;28;20033;-77
2023/09/20 03:51:58;;;;;;;1.65;1.10;;;;;;;;;;4996202;28;20022;-77
2023/09/20 03:54:24;;;;;;;3.90;1.15;;;;;;;;;;4996983;28;20513;-77
2023/09/20 03:56:49;;;;;;;2.95;1.30;;;;;;;;;;5006583;28;20037;-76
2023/09/20 03:59:17;;;;;;;2.65;1.10;;;;;;;;;;4984942;28;20053;-77
2023/09/20 04:01:42;;;;;;;4.97;1.30;;;;;;;;;;5000493;28;20032;-78
2023/09/20 04:04:08;;;;;;;2.92;1.15;;;;;;;;;;4977497;28;20105;-77
2023/09/20 04:06:33;;;;;;;3.30;1.45;;;;;;;;;;4977499;28;20481;-77
2023/09/20 04:09:01;;;;;;;3.47;1.27;;;;;;;;;;4993913;28;20030;-77
2023/09/20 04:11:26;;;;;;;1.45;1.10;;;;;;;;;;4995350;28;20034;-76
2023/09/20 04:13:52;;;;;;;2.25;1.30;;;;;;;;;;5001331;28;20080;-77
2023/09/20 04:16:18;;;;;;;6.22;1.30;;;;;;;;;;4988788;28;20027;-78
2023/09/20 04:18:44;;;;;;;4.18;1.30;;;;;;;;;;5008795;28;20022;-79
2023/09/20 04:21:09;;;;;;;3.55;1.40;;;;;;;;;;4980943;28;20385;-77
2023/09/20 04:23:34;;;;;;;1.95;1.15;;;;;;;;;;4996503;28;20085;-78
2023/09/20 04:26:00;;;;;;;5.45;1.00;;;;;;;;;;5001487;28;20030;-76
2023/09/20 04:28:25;;;;;;;2.22;1.27;;;;;;;;;;4979086;28;20026;-77
2023/09/20 04:30:51;;;;;;;2.35;1.20;;;;;;;;;;4994812;28;20027;-77
2023/09/20 04:33:16;;;;;;;4.05;1.33;;;;;;;;;;4977886;28;20032;-77
2023/09/20 04:35:41;;;;;;;3.00;1.20;;;;;;;;;;4995452;28;20026;-77
2023/09/20 04:38:06;;;;;;;3.05;1.15;;;;;;;;;;4994568;28;20040;-77
2023/09/20 04:40:32;;;;;;;1.55;1.00;;;;;;;;;;4976383;28;20026;-77
2023/09/20 04:42:57;;;;;;;2.85;1.30;;;;;;;;;;5001029;28;20033;-78
2023/09/20 04:45:22;;;;;;;1.98;1.20;;;;;;;;;;5001759;28;20076;-77
2023/09/20 04:47:48;;;;;;;3.50;1.15;;;;;;;;;;4998676;28;20485;-77
2023/09/20 04:50:13;;;;;;;6.68;1.50;;;;;;;;;;4998484;28;20088;-77
2023/09/20 04:52:38;;;;;;;3.67;1.35;;;;;;;;;;4998533;28;20053;-77
2023/09/20 04:55:05;;;;;;;1.83;1.10;;;;;;;;;;5001581;28;20022;-78
2023/09/20 04:57:31;;;;;;;4.85;1.60;;;;;;;;;;5001545;28;20516;-78
2023/09/20 04:59:56;;;;;;;2.28;1.30;;;;;;;;;;4998542;28;20030;-77
2023/09/20 05:02:22;;;;;;;2.35;1.20;;;;;;;;;;5003784;28;20026;-79
2023/09/20 05:04:47;;;;;;;2.55;1.20;;;;;;;;;;5002784;28;20037;-78
2023/09/20 05:07:13;;;;;;;4.30;1.33;;;;;;;;;;5000261;28;20026;-77
2023/09/20 05:09:38;;;;;;;3.55;1.38;;;;;;;;;;5000095;28;20363;-77
2023/09/20 05:12:04;;;;;;;7.18;1.30;;;;;;;;;;4982131;28;20058;-78
2023/09/20 05:14:30;;;;;;;2.63;1.30;;;;;;;;;;4982893;28;20033;-78
2023/09/20 05:16:55;;;;;;;3.75;1.48;;;;;;;;;;5000084;28;20022;-79
2023/09/20 05:19:23;;;;;;;2.63;1.30;;;;;;;;;;4982707;28;20188;-78
2023/09/20 05:21:48;;;;;;;3.53;1.20;;;;;;;;;;4982391;28;20523;-79
2023/09/20 05:24:14;;;;;;;3.78;1.42;;;;;;;;;;4980513;28;20042;-80
2023/09/20 05:26:39;;;;;;;2.75;1.40;;;;;;;;;;5001022;28;20441;-79
2023/09/20 05:29:04;;;;;;;2.50;1.38;;;;;;;;;;5000828;28;20062;-78
2023/09/20 05:31:30;;;;;;;1.47;1.10;;;;;;;;;;4999233;28;20042;-77
2023/09/20 05:33:55;;;;;;;3.83;1.50;;;;;;;;;;4998944;28;20244;-77
2023/09/20 05:36:26;;;;;;;3.63;1.30;;;;;;;;;;4980463;28;20493;-77
2023/09/20 05:38:52;;;;;;;5.45;1.60;;;;;;;;;;4981032;28;20026;-77
2023/09/20 05:41:18;;;;;;;7.35;1.27;;;;;;;;;;4979812;28;20441;-77
2023/09/20 05:43:43;;;;;;;2.38;1.30;;;;;;;;;;4996699;28;20262;-77
2023/09/20 05:46:10;;;;;;;3.60;1.50;;;;;;;;;;4996547;28;20481;-78
2023/09/20 05:48:36;;;;;;;4.38;1.50;;;;;;;;;;4996334;28;20027;-77
2023/09/20 05:51:01;;;;;;;3.38;1.50;;;;;;;;;;4997615;28;20109;-77
2023/09/20 05:53:28;;;;;;;5.68;1.63;;;;;;;;;;4980437;28;20026;-77
2023/09/20 05:55:53;;;;;;;3.22;1.48;;;;;;;;;;4996915;28;20034;-77
2023/09/20 05:58:18;;;;;;;8.07;1.75;;;;;;;;;;4997193;28;20034;-77
2023/09/20 06:00:44;;;;;;;2.63;1.37;;;;;;;;;;4997031;28;20058;-77
2023/09/20 06:03:11;;;;;;;3.42;1.60;;;;;;;;;;4979877;28;20280;-77
2023/09/20 06:05:37;;;;;;;5.18;1.48;;;;;;;;;;4997604;28;20030;-77
2023/09/20 06:08:04;;;;;;;5.70;1.60;;;;;;;;;;4979965;28;20524;-77
2023/09/20 06:10:29;;;;;;;2.88;1.40;;;;;;;;;;4979370;28;20026;-77
2023/09/20 06:12:54;;;;;;;5.57;1.35;;;;;;;;;;4996754;28;20029;-77
2023/09/20 06:15:19;;;;;;;6.28;1.58;;;;;;;;;;4996884;28;20077;-77
2023/09/20 06:17:49;;;;;;;3.97;1.50;;;;;;;;;;4979132;28;20026;-77
2023/09/20 06:20:19;;;;;;;3.05;1.40;;;;;;;;;;4996882;28;20037;-80
2023/09/20 06:22:51;;;;;;;5.72;1.60;;;;;;;;;;4980716;28;20075;-77
2023/09/20 06:25:19;;;;;;;6.70;1.50;;;;;;;;;;4997341;28;20080;-76
2023/09/20 06:27:45;;;;;;;8.48;1.42;;;;;;;;;;4983015;28;20502;-78
2023/09/20 06:30:13;;;;;;;6.07;1.42;;;;;;;;;;4999345;28;20085;-78
2023/09/20 06:32:44;;;;;;;3.75;1.23;;;;;;;;;;4980899;28;20555;-76
2023/09/20 06:35:10;;;;;;;3.42;1.42;;;;;;;;;;4997645;28;20053;-77
2023/09/20 06:37:35;;;;;;;5.50;1.48;;;;;;;;;;4979616;28;20026;-77
2023/09/20 06:40:02;;;;;;;3.47;1.25;;;;;;;;;;4995879;28;20026;-77
2023/09/20 06:42:30;;;;;;;4.05;1.40;;;;;;;;;;4978099;28;20029;-77
2023/09/20 06:44:57;;;;;;;3.08;1.48;;;;;;;;;;4995580;28;20077;-77
2023/09/20 06:47:22;;;;;;;6.30;1.27;;;;;;;;;;4996665;28;20101;-77
2023/09/20 06:49:48;;;;;;;2.42;1.20;;;;;;;;;;4978691;28;20053;-75
2023/09/20 06:52:13;;;;;;;4.57;1.65;;;;;;;;;;4995987;28;20041;-77
2023/09/20 06:54:39;;;;;;;8.35;1.35;;;;;;;;;;4996314;28;20077;-77
2023/09/20 06:57:05;;;;;;;2.80;1.33;;;;;;;;;;4996945;28;20018;-75
2023/09/20 06:59:32;;;;;;;3.25;1.30;;;;;;;;;;4999665;28;20026;-74
2023/09/20 07:01:59;;;;;;;4.53;1.05;;;;;;;;;;4998288;28;20030;-76
2023/09/20 07:04:25;;;;;;;2.70;1.48;;;;;;;;;;4977998;28;20035;-77
2023/09/20 07:07:00;;;;;;;2.97;1.17;;;;;;;;;;4994803;28;20025;-77
2023/09/20 07:09:26;;;;;;;6.05;1.15;;;;;;;;;;4978232;28;20062;-77
2023/09/20 07:11:51;;;;;;;1.85;1.00;;;;;;;;;;4978899;28;20061;-77
2023/09/20 07:14:20;;;;;;;4.10;1.50;;;;;;;;;;4994970;28;20101;-77
2023/09/20 07:16:49;;;;;;;1.77;1.10;;;;;;;;;;4994288;28;20074;-77
2023/09/20 07:19:17;;;;;;;4.75;1.30;;;;;;;;;;4995090;28;20528;-77
2023/09/20 07:21:45;;;;;;;4.85;1.30;;;;;;;;;;4994983;28;20082;-77
2023/09/20 07:24:14;;;;;;;4.75;1.45;;;;;;;;;;4994759;28;20022;-77
2023/09/20 07:26:45;;;;;;;4.82;1.40;;;;;;;;;;4994866;28;20026;-77
2023/09/20 07:29:14;;;;;;;6.88;1.30;;;;;;;;;;4994876;28;20366;-77
2023/09/20 07:31:39;;;;;;;3.42;1.33;;;;;;;;;;4994421;28;20121;-77
2023/09/20 07:34:06;;;;;;;2.88;1.20;;;;;;;;;;4994705;28;20113;-77
2023/09/20 07:36:35;;;;;;;2.75;1.30;;;;;;;;;;4995840;28;20056;-76
2023/09/20 07:39:04;;;;;;;2.40;1.30;;;;;;;;;;5000038;28;20033;-77
2023/09/20 07:41:29;;;;;;;5.82;1.52;;;;;;;;;;4996681;28;20022;-78
2023/09/20 07:43:55;;;;;;;1.83;1.10;;;;;;;;;;4996836;28;20035;-78
2023/09/20 07:46:23;;;;;;;3.00;1.27;;;;;;;;;;4978799;28;20024;-78
2023/09/20 07:48:50;;;;;;;2.13;0.98;;;;;;;;;;4996017;28;20806;-78
2023/09/20 07:51:23;;;;;;;5.07;1.25;;;;;;;;;;4995860;28;20465;-77
2023/09/20 07:53:53;;;;;;;3.35;1.13;;;;;;;;;;4978655;28;20405;-78
2023/09/20 07:56:20;;;;;;;3.00;1.20;;;;;;;;;;4996482;28;20030;-78
2023/09/20 07:58:45;;;;;;;3.08;1.40;;;;;;;;;;4978474;28;20029;-78
2023/09/20 08:01:12;;;;;;;5.43;2.08;;;;;;;;;;4996184;28;20026;-78
2023/09/20 08:03:38;;;;;;;3.83;1.40;;;;;;;;;;4978978;28;20022;-78
2023/09/20 08:06:08;;;;;;;5.63;1.30;;;;;;;;;;4996447;28;20028;-78
2023/09/20 08:08:35;;;;;;;5.00;1.50;;;;;;;;;;4978080;28;20130;-77
2023/09/20 08:11:00;;;;;;;2.95;1.10;;;;;;;;;;4995432;28;20032;-77
2023/09/20 08:13:25;;;;;;;4.20;1.17;;;;;;;;;;4995681;28;20026;-77
2023/09/20 08:15:51;;;;;;;4.70;1.23;;;;;;;;;;4978804;28;20023;-77
2023/09/20 08:21:00;;;;;;;3.58;1.38;;;;;;;;;;4996322;28;20076;-77
2023/09/20 09:01:56;;;;;;;;;;;;;;;;;;4994711;28;20065;-77
2023/09/20 09:04:21;;;;;;;2.35;1.00;;;;;;;;;;4994398;28;19953;-77
2023/09/20 09:06:46;;;;;;;4.65;1.30;;;;;;;;;;4995582;28;20041;-79
2023/09/20 09:09:12;;;;;;;3.08;1.20;;;;;;;;;;4995347;28;20061;-77
2023/09/20 09:11:37;;;;;;;2.63;1.00;;;;;;;;;;4976604;28;20061;-78
2023/09/20 09:14:03;;;;;;;2.17;1.10;;;;;;;;;;4981089;28;20029;-77
2023/09/20 09:16:33;;;;;;;2.85;1.02;;;;;;;;;;4996463;28;20034;-78
2023/09/20 09:18:59;;;;;;;3.25;1.10;;;;;;;;;;4996965;28;20120;-76
2023/09/20 09:21:26;;;;;;;2.65;1.00;;;;;;;;;;4995790;28;20026;-77
2023/09/20 09:23:52;;;;;;;2.13;0.90;;;;;;;;;;4995262;28;20026;-78
2023/09/20 09:26:17;;;;;;;3.08;1.15;;;;;;;;;;4995413;28;20036;-78
2023/09/20 09:28:46;;;;;;;2.03;1.05;;;;;;;;;;4995895;28;20023;-78
2023/09/20 09:31:13;;;;;;;3.00;1.17;;;;;;;;;;4998647;28;20030;-78
2023/09/20 09:33:39;;;;;;;1.52;0.88;;;;;;;;;;4984926;28;20025;-79
2023/09/20 09:36:05;;;;;;;3.28;1.38;;;;;;;;;;4984800;28;20026;-77
2023/09/20 09:38:33;;;;;;;2.53;1.15;;;;;;;;;;5001516;28;20022;-77
2023/09/20 09:40:59;;;;;;;6.30;1.58;;;;;;;;;;4979354;28;20022;-77
2023/09/20 09:43:30;;;;;;;3.83;1.17;;;;;;;;;;4996762;28;20073;-77
2023/09/20 09:46:04;;;;;;;3.00;1.10;;;;;;;;;;4997719;28;20035;-78
2023/09/20 09:48:32;;;;;;;6.25;1.33;;;;;;;;;;4985530;28;20556;-77
2023/09/20 09:50:59;;;;;;;3.03;1.10;;;;;;;;;;4996408;28;20030;-77
2023/09/20 09:53:25;;;;;;;2.45;1.13;;;;;;;;;;4999424;28;20470;-78
2023/09/20 09:55:51;;;;;;;3.45;1.50;;;;;;;;;;5000045;28;20037;-79
2023/09/20 09:58:16;;;;;;;4.68;1.30;;;;;;;;;;4984364;28;20420;-78
2023/09/20 10:00:45;;;;;;;4.22;1.38;;;;;;;;;;4999445;28;20033;-77
2023/09/20 10:03:32;;;;;;;6.45;1.90;;;;;;;;;;5001421;28;20073;-77
2023/09/20 10:06:05;;;;;;;12.65;1.70;;;;;;;;;;4999059;28;20503;-77
2023/09/20 10:08:33;;;;;;;7.57;2.70;;;;;;;;;;4999433;28;20022;-78
2023/09/20 10:11:02;;;;;;;4.43;1.23;;;;;;;;;;4982082;28;20457;-77
2023/09/20 10:13:29;;;;;;;2.45;1.00;;;;;;;;;;5000928;28;20015;-77
2023/09/20 10:15:57;;;;;;;2.70;1.15;;;;;;;;;;4984142;28;20106;-77
2023/09/20 10:18:24;;;;;;;2.00;0.98;;;;;;;;;;5000846;28;20026;-77
2023/09/20 10:24:02;;;;;;;;;;;;;;;;;;;;;
2023/09/20 10:26:29;;;;;;;2.53;1.00;;;;;;;;;;5000818;28;20090;-78
2023/09/20 10:29:17;;;;;;;1.73;1.00;;;;;;;;;;4995806;28;20541;-76
2023/09/20 10:31:42;;;;;;;5.65;1.30;;;;;;;;;;4976343;28;20066;-75
2023/09/20 10:34:09;;;;;;;5.67;1.30;;;;;;;;;;4976452;28;20073;-76
2023/09/20 10:36:35;;;;;;;2.53;0.80;;;;;;;;;;4976888;28;20347;-76
2023/09/20 10:39:18;;;;;;;4.05;1.10;;;;;;;;;;4958701;28;20489;-75
2023/09/20 10:41:45;;;;;;;2.92;1.02;;;;;;;;;;4974632;28;20035;-76
2023/09/20 10:44:28;;;;;;;9.52;1.20;;;;;;;;;;4958321;28;20050;-75
2023/09/20 10:46:53;;;;;;;3.70;1.05;;;;;;;;;;4958542;28;20031;-76
2023/09/20 10:49:47;;;;;;;5.15;1.10;;;;;;;;;;4958243;28;20034;-76
2023/09/20 10:52:13;;;;;;;1.92;1.02;;;;;;;;;;4976045;28;20022;-75
2023/09/20 10:54:39;;;;;;;3.47;1.13;;;;;;;;;;4975822;28;20026;-75
2023/09/20 10:57:09;;;;;;;2.25;0.95;;;;;;;;;;4975697;28;20019;-76
2023/09/20 10:59:36;;;;;;;3.78;0.80;;;;;;;;;;4975482;28;20110;-76
2023/09/20 11:02:09;;;;;;;2.72;0.70;;;;;;;;;;4975411;28;20038;-76
2023/09/20 11:04:36;;;;;;;3.30;0.85;;;;;;;;;;4974818;28;20420;-75
2023/09/20 11:07:02;;;;;;;1.45;0.85;;;;;;;;;;4975219;28;20429;-75
2023/09/20 11:09:33;;;;;;;2.00;0.73;;;;;;;;;;4975198;28;20110;-75
2023/09/20 11:12:04;;;;;;;1.17;0.80;;;;;;;;;;4975673;28;20031;-75
2023/09/20 11:14:31;;;;;;;2.42;0.93;;;;;;;;;;4957907;28;20074;-75
2023/09/20 11:16:56;;;;;;;2.10;0.88;;;;;;;;;;4975126;28;20082;-75
2023/09/20 11:19:22;;;;;;;0.85;0.77;;;;;;;;;;4957561;28;20022;-75
2023/09/20 11:21:47;;;;;;;3.00;1.10;;;;;;;;;;4974838;28;20037;-76
2023/09/20 11:24:14;;;;;;;2.15;0.80;;;;;;;;;;4974934;28;20058;-75
2023/09/20 11:26:40;;;;;;;4.50;1.15;;;;;;;;;;4975221;28;20509;-75
2023/09/20 11:29:08;;;;;;;1.30;0.90;;;;;;;;;;4975110;28;20026;-75
2023/09/20 11:31:35;;;;;;;2.88;0.95;;;;;;;;;;4974852;28;20038;-75
2023/09/20 11:34:02;;;;;;;3.78;1.02;;;;;;;;;;4974908;28;20023;-75
2023/09/20 11:36:28;;;;;;;2.42;0.90;;;;;;;;;;4956527;28;20394;-75
2023/09/20 11:38:54;;;;;;;2.45;0.82;;;;;;;;;;4973603;28;20023;-76
2023/09/20 11:41:25;;;;;;;2.65;1.00;;;;;;;;;;4957039;28;20026;-76
2023/09/20 11:43:55;;;;;;;1.55;0.90;;;;;;;;;;4973325;28;20030;-75
2023/09/20 11:46:20;;;;;;;1.63;0.70;;;;;;;;;;4974622;28;20031;-76
2023/09/20 11:48:48;;;;;;;3.20;0.85;;;;;;;;;;4974732;28;20023;-75
2023/09/20 11:51:14;;;;;;;3.33;1.05;;;;;;;;;;4974448;28;20077;-76
2023/09/20 11:53:42;;;;;;;1.52;0.70;;;;;;;;;;4956932;28;20015;-75
2023/09/20 11:56:07;;;;;;;2.00;1.05;;;;;;;;;;4974477;28;20053;-75
2023/09/20 11:58:34;;;;;;;1.55;1.00;;;;;;;;;;4974415;28;20027;-75
2023/09/20 12:01:03;;;;;;;5.78;1.10;;;;;;;;;;4974220;28;20027;-75
2023/09/20 12:03:28;;;;;;;4.40;1.20;;;;;;;;;;4973094;28;20023;-76
2023/09/20 12:05:54;;;;;;;2.95;1.00;;;;;;;;;;4972841;28;20096;-75
2023/09/20 12:08:20;;;;;;;3.00;1.10;;;;;;;;;;4973566;28;20034;-75
2023/09/20 12:10:46;;;;;;;1.30;0.93;;;;;;;;;;4954940;28;20268;-75
2023/09/20 12:13:11;;;;;;;1.35;1.00;;;;;;;;;;4974334;28;20023;-75
2023/09/20 12:15:42;;;;;;;2.75;1.00;;;;;;;;;;4974230;28;20054;-76
2023/09/20 12:18:10;;;;;;;2.70;1.00;;;;;;;;;;4974424;28;20031;-75
2023/09/20 12:20:38;;;;;;;2.00;0.95;;;;;;;;;;4974188;28;20033;-75
2023/09/20 12:23:04;;;;;;;3.75;0.90;;;;;;;;;;4974181;28;20481;-75
2023/09/20 12:25:30;;;;;;;3.30;1.10;;;;;;;;;;4974096;28;20030;-76
2023/09/20 12:27:55;;;;;;;2.38;1.02;;;;;;;;;;4974228;28;20504;-76
2023/09/20 12:30:20;;;;;;;2.75;1.13;;;;;;;;;;4956629;28;20027;-75
2023/09/20 12:32:46;;;;;;;3.65;1.20;;;;;;;;;;4974556;28;20077;-76
2023/09/20 12:35:11;;;;;;;1.85;1.05;;;;;;;;;;4974418;28;20506;-76
2023/09/20 12:37:37;;;;;;;3.40;1.27;;;;;;;;;;4956766;28;20037;-76
2023/09/20 12:40:08;;;;;;;2.83;1.20;;;;;;;;;;4973933;28;20037;-75
2023/09/20 12:42:34;;;;;;;1.73;1.25;;;;;;;;;;4973705;28;20392;-76
2023/09/20 12:45:02;;;;;;;3.85;1.23;;;;;;;;;;4956783;28;20031;-76
2023/09/20 12:47:27;;;;;;;3.58;1.20;;;;;;;;;;4974107;28;20055;-76
2023/09/20 12:49:52;;;;;;;1.85;1.13;;;;;;;;;;4973663;28;20070;-76
2023/09/20 12:52:18;;;;;;;2.20;1.00;;;;;;;;;;4972790;28;20565;-75
2023/09/20 12:54:43;;;;;;;3.40;1.10;;;;;;;;;;4972816;28;20117;-76
2023/09/20 12:57:08;;;;;;;4.73;1.27;;;;;;;;;;4956620;28;20623;-76
2023/09/20 12:59:33;;;;;;;1.83;1.10;;;;;;;;;;4973746;28;20271;-76
2023/09/20 13:01:59;;;;;;;4.95;1.10;;;;;;;;;;4956509;28;20110;-76
2023/09/20 13:04:25;;;;;;;3.92;1.20;;;;;;;;;;4974054;28;20023;-76
2023/09/20 13:06:51;;;;;;;1.95;1.00;;;;;;;;;;4960878;28;20026;-75
2023/09/20 13:09:16;;;;;;;2.17;1.20;;;;;;;;;;4977496;28;20389;-75
2023/09/20 13:11:43;;;;;;;2.45;1.25;;;;;;;;;;4977786;28;20027;-75
2023/09/20 13:14:09;;;;;;;1.88;1.15;;;;;;;;;;4960161;28;20025;-75
2023/09/20 13:16:34;;;;;;;1.73;1.10;;;;;;;;;;4977611;28;20031;-76
2023/09/20 13:19:02;;;;;;;1.73;1.00;;;;;;;;;;4977614;28;20263;-76
2023/09/20 13:21:28;;;;;;;2.85;1.00;;;;;;;;;;4977367;28;20035;-76
2023/09/20 13:23:54;;;;;;;1.70;0.95;;;;;;;;;;4975889;28;20050;-76
2023/09/20 13:26:20;;;;;;;5.47;1.00;;;;;;;;;;4976693;28;20027;-76
2023/09/20 13:28:45;;;;;;;3.28;1.00;;;;;;;;;;4977427;28;20027;-76
2023/09/20 13:31:12;;;;;;;2.90;1.08;;;;;;;;;;4977059;28;20025;-76
2023/09/20 13:33:38;;;;;;;1.60;0.90;;;;;;;;;;4958331;28;20030;-74
2023/09/20 13:36:04;;;;;;;3.55;1.00;;;;;;;;;;4976436;28;20446;-76
2023/09/20 13:38:29;;;;;;;1.80;1.08;;;;;;;;;;4959855;28;20058;-76
2023/09/20 13:40:55;;;;;;;1.97;1.23;;;;;;;;;;4976912;28;20065;-76
2023/09/20 13:43:20;;;;;;;3.72;1.02;;;;;;;;;;4975335;28;20288;-76
2023/09/20 13:45:45;;;;;;;3.00;1.10;;;;;;;;;;4976805;28;20058;-75
2023/09/20 13:48:11;;;;;;;1.60;0.98;;;;;;;;;;4976809;28;20035;-75
2023/09/20 13:50:39;;;;;;;1.83;0.80;;;;;;;;;;4976621;28;20029;-76
2023/09/20 13:53:05;;;;;;;2.28;0.88;;;;;;;;;;4959767;28;20150;-76
2023/09/20 13:55:31;;;;;;;2.47;0.90;;;;;;;;;;4976540;28;20023;-76
2023/09/20 13:57:56;;;;;;;3.17;1.15;;;;;;;;;;4959274;28;20027;-76
2023/09/20 14:00:21;;;;;;;1.63;0.90;;;;;;;;;;4976534;28;20478;-76
2023/09/20 14:02:47;;;;;;;1.97;0.90;;;;;;;;;;4976469;28;20162;-75
2023/09/20 14:05:14;;;;;;;3.08;1.00;;;;;;;;;;4976902;28;20269;-76
2023/09/20 14:07:44;;;;;;;1.65;1.00;;;;;;;;;;4976630;28;20090;-76
2023/09/20 14:10:14;;;;;;;1.98;1.15;;;;;;;;;;4976879;28;20438;-76
2023/09/20 14:12:42;;;;;;;2.70;1.00;;;;;;;;;;4976650;28;20031;-76
2023/09/20 14:15:15;;;;;;;3.40;1.10;;;;;;;;;;4974849;28;20446;-76
2023/09/20 14:17:44;;;;;;;1.88;1.10;;;;;;;;;;4973570;28;20616;-76
2023/09/20 14:20:15;;;;;;;3.55;1.00;;;;;;;;;;4973096;28;20034;-75
2023/09/20 14:22:41;;;;;;;2.53;1.52;;;;;;;;;;4974285;28;20046;-77
2023/09/20 14:25:08;;;;;;;2.20;1.05;;;;;;;;;;4974132;28;20570;-77
2023/09/20 14:27:35;;;;;;;2.28;0.90;;;;;;;;;;4957577;28;20034;-76
2023/09/20 14:30:00;;;;;;;1.25;0.90;;;;;;;;;;4958518;28;20117;-77
2023/09/20 14:32:25;;;;;;;2.42;1.10;;;;;;;;;;4975805;28;20146;-76
2023/09/20 14:34:51;;;;;;;3.22;1.08;;;;;;;;;;4959750;28;20082;-76
2023/09/20 14:37:16;;;;;;;1.42;0.95;;;;;;;;;;4977504;28;20029;-78
2023/09/20 14:39:42;;;;;;;5.00;1.37;;;;;;;;;;4976985;28;20031;-74
2023/09/20 14:42:08;;;;;;;2.25;0.90;;;;;;;;;;4975755;28;20392;-73
2023/09/20 14:44:34;;;;;;;2.35;1.00;;;;;;;;;;4958180;28;20026;-73
2023/09/20 14:47:00;;;;;;;2.42;0.98;;;;;;;;;;4975668;28;20058;-73
2023/09/20 14:49:25;;;;;;;2.03;1.05;;;;;;;;;;4975126;28;20023;-74
2023/09/20 14:51:52;;;;;;;1.50;1.00;;;;;;;;;;4975723;28;20022;-74
2023/09/20 14:54:18;;;;;;;2.50;1.00;;;;;;;;;;4958270;28;20027;-74
2023/09/20 14:56:43;;;;;;;3.08;1.10;;;;;;;;;;4975576;28;20440;-73
2023/09/20 14:59:09;;;;;;;1.35;0.80;;;;;;;;;;4958310;28;20026;-74
2023/09/20 15:01:35;;;;;;;2.85;0.90;;;;;;;;;;4975824;28;20095;-73
2023/09/20 15:04:00;;;;;;;2.30;0.80;;;;;;;;;;4975429;28;20019;-73
2023/09/20 15:06:27;;;;;;;2.80;1.10;;;;;;;;;;4975377;28;20485;-73
2023/09/20 15:08:53;;;;;;;3.42;1.00;;;;;;;;;;4957909;28;20045;-75
2023/09/20 15:11:18;;;;;;;2.22;1.00;;;;;;;;;;4957279;28;20113;-74
2023/09/20 15:13:44;;;;;;;1.40;0.90;;;;;;;;;;4973721;28;20027;-73
2023/09/20 15:16:17;;;;;;;3.80;1.00;;;;;;;;;;4975310;28;20092;-73
2023/09/20 15:18:48;;;;;;;2.08;0.90;;;;;;;;;;4958183;28;20117;-75
2023/09/20 15:21:15;;;;;;;1.50;0.93;;;;;;;;;;4958270;28;20023;-75
2023/09/20 15:23:43;;;;;;;3.00;0.95;;;;;;;;;;4957594;28;20026;-73
2023/09/20 15:26:12;;;;;;;1.50;0.90;;;;;;;;;;4973414;28;20146;-73
2023/09/20 15:28:38;;;;;;;2.75;1.08;;;;;;;;;;4974540;28;20166;-73